Time;durP1;ratioP1;P1;durP2;ratioP2;P2;SDS_P1;SDS_P2;PMS_P1;PMS_P2;Temp;Humidity;BMP_temperature;BMP_pressure;BME280_temperature;BME280_humidity;BME280_pressure;Samples;Min_cycle;Max_cycle;Signal;HPM_P1;HPM_P2
2023/04/26 00:01:59;;;;;;;10.83;3.30;;;;;;;4.01;100.00;96155.88;7395324;19;20344;-72
2023/04/26 00:04:27;;;;;;;6.47;3.30;;;;;;;4.02;100.00;96180.19;7394353;19;20888;-72
2023/04/26 00:06:55;;;;;;;4.80;3.20;;;;;;;3.89;100.00;96181.72;7395255;19;20355;-72
2023/04/26 00:09:22;;;;;;;7.43;4.53;;;;;;;3.64;100.00;96151.53;7395506;19;20452;-72
2023/04/26 00:11:49;;;;;;;7.67;3.03;;;;;;;3.79;100.00;96171.41;7397511;19;20426;-72
2023/04/26 00:14:17;;;;;;;4.73;2.37;;;;;;;3.97;100.00;96180.25;7395443;19;20400;-72
2023/04/26 00:16:44;;;;;;;2.67;2.43;;;;;;;3.82;100.00;96176.84;7393899;19;20353;-72
2023/04/26 00:19:11;;;;;;;7.70;3.07;;;;;;;3.59;100.00;96162.03;7395343;19;20349;-72
2023/04/26 00:21:38;;;;;;;3.27;2.63;;;;;;;3.52;100.00;96159.78;7397069;19;20368;-71
2023/04/26 00:24:06;;;;;;;6.00;2.80;;;;;;;3.72;100.00;96177.00;7396843;19;20372;-72
2023/04/26 00:26:33;;;;;;;3.40;3.07;;;;;;;3.43;100.00;96177.19;7396629;19;20352;-71
2023/04/26 00:29:02;;;;;;;3.40;3.00;;;;;;;3.26;100.00;96162.00;7395741;19;20404;-71
2023/04/26 00:31:29;;;;;;;3.90;2.73;;;;;;;3.24;100.00;96171.97;7394021;19;20395;-72
2023/04/26 00:33:56;;;;;;;5.30;2.30;;;;;;;2.92;100.00;96156.19;7395498;19;20408;-72
2023/04/26 00:36:23;;;;;;;2.90;2.70;;;;;;;2.64;100.00;96163.06;7392129;19;20424;-72
2023/04/26 00:38:50;;;;;;;6.13;3.40;;;;;;;2.19;100.00;96114.81;7393981;19;20380;-71
2023/04/26 00:41:17;;;;;;;6.60;3.40;;;;;;;2.52;100.00;96141.81;7393669;19;20400;-71
2023/04/26 00:43:44;;;;;;;3.33;3.00;;;;;;;2.73;100.00;96189.34;7395116;19;20401;-71
2023/04/26 00:46:11;;;;;;;7.83;4.27;;;;;;;2.69;100.00;96157.03;7392929;19;20912;-71
2023/04/26 00:48:38;;;;;;;5.63;3.00;;;;;;;2.91;100.00;96167.69;7394611;19;20416;-71
2023/04/26 00:51:06;;;;;;;4.27;2.83;;;;;;;2.83;100.00;96157.91;7393382;19;20376;-71
2023/04/26 00:53:34;;;;;;;5.83;3.17;;;;;;;3.08;100.00;96182.91;7393603;19;20384;-71
2023/04/26 00:56:02;;;;;;;3.60;3.10;;;;;;;3.20;100.00;96196.31;7391556;19;20764;-71
2023/04/26 00:58:29;;;;;;;5.00;3.37;;;;;;;3.04;100.00;96166.22;7393984;19;20377;-71
2023/04/26 01:00:57;;;;;;;3.10;2.57;;;;;;;3.10;100.00;96178.94;7393444;19;20773;-71
2023/04/26 01:03:25;;;;;;;8.43;3.20;;;;;;;2.87;100.00;96185.00;7394620;19;20376;-71
2023/04/26 01:05:53;;;;;;;2.73;2.53;;;;;;;2.69;100.00;96183.13;7391688;19;20503;-71
2023/04/26 01:08:21;;;;;;;4.93;3.33;;;;;;;2.78;100.00;96200.47;7395883;19;20361;-71
2023/04/26 01:10:48;;;;;;;4.17;2.83;;;;;;;2.89;100.00;96190.69;7393080;19;20455;-71
2023/04/26 01:13:15;;;;;;;3.90;2.80;;;;;;;2.73;100.00;96165.84;7394612;19;20391;-71
2023/04/26 01:15:46;;;;;;;6.70;4.53;;;;;;;2.58;100.00;96192.91;7393361;19;20508;-71
2023/04/26 01:18:14;;;;;;;6.03;3.37;;;;;;;2.24;100.00;96185.16;7393984;19;20480;-71
2023/04/26 01:20:41;;;;;;;5.47;4.40;;;;;;;2.37;100.00;96182.66;7391095;19;20365;-71
2023/04/26 01:23:10;;;;;;;6.10;3.20;;;;;;;2.43;100.00;96182.63;7394486;19;20389;-71
2023/04/26 01:25:37;;;;;;;3.97;2.90;;;;;;;2.26;100.00;96176.00;7391943;19;20411;-71
2023/04/26 01:28:04;;;;;;;4.27;2.80;;;;;;;2.22;100.00;96184.66;7394475;19;20740;-71
2023/04/26 01:30:31;;;;;;;6.43;3.70;;;;;;;2.11;100.00;96186.56;7395087;19;20353;-71
2023/04/26 01:33:01;;;;;;;5.90;4.10;;;;;;;1.97;100.00;96199.47;7395119;19;20375;-71
2023/04/26 01:35:28;;;;;;;11.63;5.70;;;;;;;1.86;100.00;96179.75;7392451;19;20432;-71
2023/04/26 01:37:55;;;;;;;9.70;4.80;;;;;;;1.96;100.00;96191.94;7394799;19;20416;-71
2023/04/26 01:40:22;;;;;;;6.13;3.87;;;;;;;1.61;100.00;96193.00;7393335;19;20370;-71
2023/04/26 01:42:49;;;;;;;5.40;4.10;;;;;;;1.59;100.00;96214.09;7395601;19;20366;-71
2023/04/26 01:45:16;;;;;;;5.57;3.77;;;;;;;1.32;100.00;96192.91;7392644;19;20436;-71
2023/04/26 01:48:01;;;;;;;12.10;4.07;;;;;;;1.36;100.00;96191.34;7394087;19;20398;-71
2023/04/26 01:50:30;;;;;;;6.70;4.30;;;;;;;1.35;100.00;96213.25;7394404;19;20376;-71
2023/04/26 01:52:57;;;;;;;6.60;3.70;;;;;;;1.32;100.00;96209.31;7392587;19;20391;-71
2023/04/26 01:55:24;;;;;;;5.17;3.37;;;;;;;1.18;100.00;96190.13;7392974;19;20432;-74
2023/04/26 01:57:51;;;;;;;6.03;4.00;;;;;;;1.34;100.00;96207.25;7395065;19;20453;-71
2023/04/26 02:00:19;;;;;;;6.30;3.77;;;;;;;1.34;100.00;96186.41;7396275;19;20388;-71
2023/04/26 02:02:48;;;;;;;3.83;3.30;;;;;;;1.45;100.00;96193.09;7392819;19;20376;-71
2023/04/26 02:05:15;;;;;;;5.00;3.77;;;;;;;1.69;100.00;96218.47;7393775;19;20424;-71
2023/04/26 02:07:42;;;;;;;9.20;4.37;;;;;;;0.90;100.00;96118.72;7399081;19;20967;-71
2023/04/26 02:10:09;;;;;;;5.60;3.80;;;;;;;1.36;100.00;96183.53;7402960;19;20408;-70
2023/04/26 02:12:36;;;;;;;4.27;3.77;;;;;;;1.65;100.00;96210.41;7417149;19;20377;-70
2023/04/26 02:15:03;;;;;;;9.03;3.33;;;;;;;1.68;100.00;96219.53;7432020;19;20428;-71
2023/04/26 02:17:30;;;;;;;6.57;3.50;;;;;;;1.58;100.00;96211.75;7431828;19;20436;-71
2023/04/26 02:19:57;;;;;;;5.50;3.80;;;;;;;1.42;100.00;96206.66;7431329;19;20416;-71
2023/04/26 02:22:25;;;;;;;5.63;4.10;;;;;;;1.19;100.00;96178.69;7431116;19;20412;-71
2023/04/26 02:24:52;;;;;;;6.53;4.73;;;;;;;1.40;100.00;96210.59;7430586;19;20579;-71
2023/04/26 02:27:19;;;;;;;5.50;4.80;;;;;;;1.43;100.00;96207.44;7423557;19;20404;-71
2023/04/26 02:29:46;;;;;;;10.80;4.13;;;;;;;1.35;100.00;96184.59;7422741;19;20427;-71
2023/04/26 02:32:13;;;;;;;10.67;5.00;;;;;;;1.52;100.00;96211.03;7413738;19;20922;-71
2023/04/26 02:34:40;;;;;;;4.50;4.10;;;;;;;1.41;100.00;96180.88;7401833;19;20432;-71
2023/04/26 02:37:07;;;;;;;4.90;4.40;;;;;;;1.64;100.00;96185.41;7401661;19;20349;-71
2023/04/26 02:39:35;;;;;;;6.50;4.03;;;;;;;1.97;100.00;96201.31;7396059;19;20381;-71
2023/04/26 02:42:02;;;;;;;6.30;4.47;;;;;;;2.04;100.00;96199.94;7399609;19;20372;-71
2023/04/26 02:44:29;;;;;;;6.90;3.97;;;;;;;2.21;100.00;96189.09;7400937;19;20428;-71
2023/04/26 02:46:57;;;;;;;4.20;3.80;;;;;;;2.12;100.00;96197.78;7399365;19;20771;-71
2023/04/26 02:49:24;;;;;;;6.10;3.53;;;;;;;2.13;100.00;96194.13;7397324;19;20405;-71
2023/04/26 02:51:51;;;;;;;4.70;3.77;;;;;;;2.24;100.00;96192.97;7399556;19;20881;-71
2023/04/26 02:54:19;;;;;;;4.47;4.07;;;;;;;2.01;100.00;96173.66;7396952;19;20488;-72
2023/04/26 02:56:46;;;;;;;5.33;3.23;;;;;;;1.66;100.00;96188.53;7399596;19;20479;-72
2023/04/26 02:59:12;;;;;;;9.30;3.90;;;;;;;1.79;100.00;96176.69;7396030;19;20423;-72
2023/04/26 03:01:40;;;;;;;4.73;2.67;;;;;;;1.61;100.00;96179.97;7398713;19;20397;-72
2023/04/26 03:04:08;;;;;;;4.57;3.80;;;;;;;1.36;100.00;96173.91;7397717;19;20771;-72
2023/04/26 03:06:36;;;;;;;5.27;4.00;;;;;;;1.39;100.00;96191.59;7398674;19;20376;-72
2023/04/26 03:09:04;;;;;;;6.90;3.60;;;;;;;1.18;100.00;96158.91;7399107;19;20353;-72
2023/04/26 03:11:31;;;;;;;14.13;4.53;;;;;;;1.50;100.00;96197.50;7402850;19;20366;-72
2023/04/26 03:13:58;;;;;;;5.90;3.30;;;;;;;1.40;100.00;96176.72;7399073;19;20380;-72
2023/04/26 03:16:27;;;;;;;6.43;3.50;;;;;;;1.59;100.00;96213.31;7397080;19;20787;-72
2023/04/26 03:18:54;;;;;;;9.73;4.87;;;;;;;1.42;100.00;96198.84;7398401;19;20377;-72
2023/04/26 03:21:21;;;;;;;6.10;3.87;;;;;;;1.51;100.00;96187.88;7396482;19;20381;-72
2023/04/26 03:23:48;;;;;;;5.70;3.53;;;;;;;1.52;100.00;96192.81;7400280;19;20379;-72
2023/04/26 03:26:15;;;;;;;5.20;2.87;;;;;;;1.46;100.00;96184.22;7398815;19;20428;-72
2023/04/26 03:28:42;;;;;;;5.97;3.47;;;;;;;1.46;100.00;96201.69;7407229;19;20425;-72
2023/04/26 03:31:09;;;;;;;5.10;3.40;;;;;;;1.50;100.00;96205.31;7412261;19;20396;-72
2023/04/26 03:33:36;;;;;;;3.87;3.20;;;;;;;1.39;100.00;96178.56;7408657;19;20708;-72
2023/04/26 03:36:03;;;;;;;4.27;3.20;;;;;;;1.47;100.00;96211.84;7398236;19;20495;-72
2023/04/26 03:38:30;;;;;;;8.33;3.97;;;;;;;1.20;100.00;96185.44;7397098;19;20414;-72
2023/04/26 03:40:57;;;;;;;7.80;4.10;;;;;;;1.30;100.00;96206.22;7395114;19;20388;-72
2023/04/26 03:43:24;;;;;;;5.93;3.97;;;;;;;1.40;100.00;96192.34;7396752;19;20373;-72
2023/04/26 03:45:51;;;;;;;5.57;3.57;;;;;;;1.50;100.00;96220.19;7396878;19;20435;-72
2023/04/26 03:48:18;;;;;;;3.70;3.40;;;;;;;1.31;100.00;96214.81;7397067;19;20390;-72
2023/04/26 03:50:45;;;;;;;3.60;3.10;;;;;;;1.38;100.00;96207.47;7399169;19;20391;-72
2023/04/26 03:53:12;;;;;;;3.60;3.30;;;;;;;1.16;100.00;96203.44;7396561;19;20384;-72
2023/04/26 03:55:40;;;;;;;7.33;3.53;;;;;;;1.08;100.00;96187.63;7396340;19;20428;-72
2023/04/26 03:58:07;;;;;;;6.50;3.93;;;;;;;1.24;100.00;96219.53;7396005;19;20393;-72
2023/04/26 04:00:38;;;;;;;7.00;3.97;;;;;;;1.21;100.00;96200.03;7397323;19;20405;-72
2023/04/26 04:03:06;;;;;;;5.57;3.60;;;;;;;1.30;100.00;96210.66;7396556;19;20409;-72
2023/04/26 04:05:33;;;;;;;4.53;4.13;;;;;;;1.32;100.00;96209.31;7393869;19;20451;-72
2023/04/26 04:08:01;;;;;;;5.00;4.43;;;;;;;1.14;100.00;96212.56;7396478;19;20943;-72
2023/04/26 04:10:29;;;;;;;7.63;6.77;;;;;;;1.07;100.00;96235.50;7395322;19;20384;-73
2023/04/26 04:12:56;;;;;;;8.33;5.97;;;;;;;0.70;100.00;96220.31;7396626;19;20390;-72
2023/04/26 04:15:23;;;;;;;8.27;6.20;;;;;;;0.78;100.00;96217.13;7394609;19;20775;-72
2023/04/26 04:17:50;;;;;;;5.17;4.63;;;;;;;0.94;100.00;96218.66;7396116;19;20920;-72
2023/04/26 04:20:17;;;;;;;5.13;4.40;;;;;;;0.72;100.00;96226.00;7394896;19;20704;-72
2023/04/26 04:22:45;;;;;;;5.33;3.70;;;;;;;0.62;100.00;96241.66;7397769;19;20404;-72
2023/04/26 04:25:12;;;;;;;4.70;3.10;;;;;;;0.67;100.00;96232.03;7422775;19;20482;-72
2023/04/26 04:27:44;;;;;;;4.80;4.17;;;;;;;0.48;100.00;96244.03;7416508;19;20376;-72
2023/04/26 04:30:11;;;;;;;4.10;3.47;;;;;;;0.51;100.00;96225.28;7393726;19;20744;-72
2023/04/26 04:32:41;;;;;;;4.40;3.23;;;;;;;0.81;100.00;96250.44;7396360;19;20389;-72
2023/04/26 04:35:08;;;;;;;5.10;2.60;;;;;;;0.97;100.00;96251.94;7393726;19;20538;-72
2023/04/26 04:37:35;;;;;;;7.07;3.43;;;;;;;0.98;100.00;96250.13;7396154;19;20414;-72
2023/04/26 04:40:03;;;;;;;3.10;2.90;;;;;;;1.03;100.00;96263.88;7393085;19;20397;-72
2023/04/26 04:42:33;;;;;;;4.00;3.50;;;;;;;1.07;100.00;96249.31;7396113;19;20405;-73
2023/04/26 04:45:04;;;;;;;4.67;2.57;;;;;;;1.19;100.00;96267.19;7393612;19;20412;-73
2023/04/26 04:47:32;;;;;;;5.27;4.20;;;;;;;1.05;100.00;96240.97;7395501;19;20404;-73
2023/04/26 04:50:00;;;;;;;3.73;3.07;;;;;;;1.06;100.00;96241.75;7394207;19;20409;-73
2023/04/26 04:52:27;;;;;;;3.73;3.43;;;;;;;0.97;100.00;96241.53;7395744;19;20376;-73
2023/04/26 04:54:54;;;;;;;3.40;2.67;;;;;;;1.12;100.00;96251.09;7393728;19;20441;-73
2023/04/26 04:57:21;;;;;;;4.50;4.10;;;;;;;1.60;100.00;96269.59;7395178;19;20460;-73
2023/04/26 04:59:50;;;;;;;7.43;3.37;;;;;;;1.63;100.00;96246.41;7392509;19;20378;-73
2023/04/26 05:02:17;;;;;;;4.80;2.87;;;;;;;1.75;100.00;96267.69;7394896;19;20403;-73
2023/04/26 05:04:44;;;;;;;4.50;3.97;;;;;;;1.96;100.00;96270.13;7392635;19;20500;-73
2023/04/26 05:07:14;;;;;;;3.43;2.87;;;;;;;1.99;100.00;96280.78;7395271;19;20392;-73
2023/04/26 05:09:41;;;;;;;6.50;2.63;;;;;;;1.82;100.00;96263.97;7393858;19;20420;-74
2023/04/26 05:12:09;;;;;;;4.60;3.27;;;;;;;1.96;100.00;96277.97;7392798;19;20401;-73
2023/04/26 05:14:36;;;;;;;4.10;3.20;;;;;;;1.96;100.00;96278.72;7394862;19;20401;-73
2023/04/26 05:17:03;;;;;;;3.53;2.97;;;;;;;1.78;100.00;96274.97;7392155;19;20371;-73
2023/04/26 05:19:30;;;;;;;4.40;2.77;;;;;;;1.78;100.00;96287.22;7393135;19;20412;-73
2023/04/26 05:21:58;;;;;;;9.20;4.90;;;;;;;1.80;100.00;96284.31;7392845;19;20384;-73
2023/04/26 05:24:25;;;;;;;11.77;6.77;;;;;;;1.93;100.00;96281.13;7393990;19;20400;-73
2023/04/26 05:26:52;;;;;;;6.67;5.00;;;;;;;2.21;100.00;96282.22;7393156;19;20723;-73
2023/04/26 05:29:30;;;;;;;4.23;3.60;;;;;;;2.28;100.00;96267.81;7391831;19;20427;-73
2023/04/26 05:32:16;;;;;;;7.17;4.50;;;;;;;2.59;100.00;96285.78;7394261;19;20435;-73
2023/04/26 05:34:53;;;;;;;6.70;3.60;;;;;;;2.66;100.00;96296.66;7391600;19;20424;-73
2023/04/26 05:37:20;;;;;;;14.33;5.13;;;;;;;2.90;100.00;96294.06;7393825;19;20388;-73
2023/04/26 05:39:47;;;;;;;5.47;3.40;;;;;;;2.95;100.00;96302.66;7393211;19;20352;-73
2023/04/26 05:42:15;;;;;;;8.67;3.93;;;;;;;3.03;100.00;96310.91;7401241;19;20388;-73
2023/04/26 05:44:44;;;;;;;5.83;4.93;;;;;;;3.08;100.00;96282.16;7400008;19;20417;-73
2023/04/26 05:47:11;;;;;;;5.47;4.57;;;;;;;3.43;100.00;96307.81;7401809;19;20417;-73
2023/04/26 05:49:38;;;;;;;6.07;4.43;;;;;;;3.80;100.00;96322.00;7401820;19;20381;-73
2023/04/26 05:52:05;;;;;;;6.17;5.17;;;;;;;4.01;100.00;96304.97;7402263;19;20396;-73
2023/04/26 05:54:32;;;;;;;7.80;4.47;;;;;;;4.14;100.00;96317.34;7399640;19;20431;-74
2023/04/26 05:56:59;;;;;;;10.50;4.87;;;;;;;4.05;100.00;96300.72;7401046;19;20396;-73
2023/04/26 05:59:30;;;;;;;2.70;2.50;;;;;;;3.97;100.00;96322.28;7398050;19;20384;-73
2023/04/26 06:01:57;;;;;;;5.40;3.63;;;;;;;4.01;100.00;96312.03;7401443;19;20364;-73
2023/04/26 06:04:25;;;;;;;4.30;3.70;;;;;;;4.18;100.00;96327.22;7411247;19;20365;-73
2023/04/26 06:07:02;;;;;;;5.07;3.17;;;;;;;3.90;100.00;96331.56;7402968;19;20448;-73
2023/04/26 06:09:33;;;;;;;6.73;3.70;;;;;;;4.21;100.00;96310.94;7399236;19;20467;-73
2023/04/26 06:12:01;;;;;;;6.47;3.50;;;;;;;4.47;100.00;96327.81;7398280;19;20408;-73
2023/04/26 06:14:29;;;;;;;7.47;3.57;;;;;;;4.17;100.00;96321.22;7399034;19;20397;-73
2023/04/26 06:17:02;;;;;;;4.97;3.00;;;;;;;4.05;100.00;96318.25;7398299;19;20475;-73
2023/04/26 06:19:29;;;;;;;4.20;1.97;;;;;;;3.71;100.00;96308.00;7398746;19;20384;-73
2023/04/26 06:21:56;;;;;;;6.43;2.73;;;;;;;3.75;100.00;96335.16;7398497;19;20372;-73
2023/04/26 06:24:24;;;;;;;8.50;3.90;;;;;;;3.48;100.00;96296.56;7399424;19;20421;-73
2023/04/26 06:26:51;;;;;;;4.00;3.63;;;;;;;4.10;100.00;96318.16;7397971;19;20448;-74
2023/04/26 06:29:20;;;;;;;5.90;2.80;;;;;;;4.49;100.00;96323.06;7399843;19;20494;-73
2023/04/26 06:31:47;;;;;;;10.70;3.73;;;;;;;4.03;100.00;96334.25;7398068;19;20967;-73
2023/04/26 06:34:14;;;;;;;4.77;3.50;;;;;;;3.78;100.00;96313.66;7399568;19;20490;-73
2023/04/26 06:36:41;;;;;;;4.70;2.60;;;;;;;3.74;100.00;96282.09;7397887;19;20381;-73
2023/04/26 06:39:09;;;;;;;10.63;3.07;;;;;;;4.50;100.00;96345.56;7399062;19;20420;-73
2023/04/26 06:41:37;;;;;;;3.20;2.87;;;;;;;4.46;100.00;96347.19;7398114;19;20385;-73
2023/04/26 06:44:05;;;;;;;3.30;2.73;;;;;;;4.72;100.00;96342.31;7399378;19;20404;-73
2023/04/26 06:46:32;;;;;;;5.13;3.70;;;;;;;4.83;100.00;96342.94;7395272;19;20433;-73
2023/04/26 06:49:00;;;;;;;5.37;3.33;;;;;;;4.53;100.00;96354.66;7400876;19;20367;-73
2023/04/26 06:51:28;;;;;;;5.83;3.17;;;;;;;4.82;100.00;96328.28;7396721;19;20383;-74
2023/04/26 06:53:57;;;;;;;3.80;2.57;;;;;;;4.83;100.00;96345.56;7398474;19;20416;-73
2023/04/26 06:56:24;;;;;;;4.20;2.30;;;;;;;5.18;100.00;96333.63;7396943;19;20408;-74
2023/04/26 06:59:05;;;;;;;5.17;2.57;;;;;;;5.60;100.00;96350.91;7399234;19;20384;-73
2023/04/26 07:01:34;;;;;;;3.80;3.10;;;;;;;4.96;100.00;96335.09;7398040;19;20352;-73
2023/04/26 07:04:02;;;;;;;5.60;2.20;;;;;;;5.14;100.00;96356.25;7396598;19;20360;-73
2023/04/26 07:06:33;;;;;;;6.30;2.67;;;;;;;5.28;100.00;96359.66;7395608;19;20424;-74
2023/04/26 07:09:01;;;;;;;2.40;1.90;;;;;;;5.13;100.00;96337.16;7396561;19;20380;-73
2023/04/26 07:11:29;;;;;;;4.57;2.93;;;;;;;5.79;100.00;96353.41;7398244;19;20361;-74
2023/04/26 07:13:56;;;;;;;4.53;1.90;;;;;;;5.43;100.00;96335.00;7397280;19;20413;-73
2023/04/26 07:16:23;;;;;;;1.90;1.67;;;;;;;5.60;100.00;96322.06;7396195;19;21480;-73
2023/04/26 07:18:51;;;;;;;5.80;2.37;;;;;;;5.58;100.00;96350.44;7397157;19;20408;-73
2023/04/26 07:21:18;;;;;;;4.37;2.10;;;;;;;5.92;100.00;96323.78;7396906;19;20415;-73
2023/04/26 07:23:45;;;;;;;3.87;2.73;;;;;;;6.15;100.00;96317.50;7396800;19;20381;-73
2023/04/26 07:26:12;;;;;;;6.93;2.50;;;;;;;6.77;100.00;96351.72;7397279;19;20440;-73
2023/04/26 07:28:39;;;;;;;2.43;2.30;;;;;;;6.41;100.00;96330.81;7398140;19;20369;-74
2023/04/26 07:31:06;;;;;;;2.77;2.43;;;;;;;6.93;100.00;96354.75;7398531;19;20373;-74
2023/04/26 07:33:36;;;;;;;2.33;2.10;;;;;;;7.06;100.00;96351.25;7398584;19;20471;-73
2023/04/26 07:36:04;;;;;;;4.20;2.40;;;;;;;6.75;100.00;96356.50;7398125;19;20448;-74
2023/04/26 07:38:31;;;;;;;4.27;2.53;;;;;;;6.68;100.00;96337.78;7396965;19;20345;-74
2023/04/26 07:40:59;;;;;;;4.30;2.20;;;;;;;7.00;100.00;96344.59;7397209;19;20471;-75
2023/04/26 07:43:27;;;;;;;3.20;2.43;;;;;;;5.78;100.00;96334.28;7397087;19;20368;-74
2023/04/26 07:45:53;;;;;;;3.10;2.77;;;;;;;6.35;100.00;96358.25;7396614;19;20428;-75
2023/04/26 07:48:21;;;;;;;7.63;2.37;;;;;;;6.71;100.00;96360.03;7396837;19;20353;-75
2023/04/26 07:50:48;;;;;;;2.40;2.20;;;;;;;6.48;99.32;96357.41;7400058;19;20376;-75
2023/04/26 07:53:14;;;;;;;3.50;1.63;;;;;;;7.28;100.00;96358.31;7397256;19;20373;-74
2023/04/26 07:55:41;;;;;;;4.83;1.90;;;;;;;7.32;96.33;96353.22;7399803;19;20413;-75
2023/04/26 07:58:13;;;;;;;7.53;2.50;;;;;;;7.03;95.81;96343.97;7396931;19;20372;-75
2023/04/26 08:00:40;;;;;;;10.23;2.53;;;;;;;6.88;99.14;96352.25;7395677;19;20930;-74
2023/04/26 08:03:07;;;;;;;5.57;2.30;;;;;;;6.40;99.75;96358.13;7426193;19;20345;-74
2023/04/26 08:05:35;;;;;;;3.60;1.90;;;;;;;5.99;100.00;96349.59;7422360;19;20440;-74
2023/04/26 08:08:02;;;;;;;4.67;2.50;;;;;;;5.68;100.00;96334.50;7424994;19;20368;-74
2023/04/26 08:10:29;;;;;;;3.80;2.40;;;;;;;5.75;100.00;96345.38;7422705;19;20388;-74
2023/04/26 08:12:56;;;;;;;5.13;2.30;;;;;;;6.14;100.00;96338.78;7407844;19;20695;-75
2023/04/26 08:15:23;;;;;;;5.77;2.80;;;;;;;6.41;100.00;96354.44;7401903;19;20956;-74
2023/04/26 08:17:52;;;;;;;2.57;2.37;;;;;;;6.04;99.10;96312.78;7402486;19;20739;-74
2023/04/26 08:20:19;;;;;;;5.90;2.03;;;;;;;5.79;98.81;96319.31;7399955;19;20368;-75
2023/04/26 08:22:46;;;;;;;3.43;2.33;;;;;;;5.99;100.00;96365.34;7401580;19;20404;-75
2023/04/26 08:25:14;;;;;;;3.30;2.07;;;;;;;6.46;97.39;96366.69;7397632;19;20436;-75
2023/04/26 08:27:41;;;;;;;3.40;3.10;;;;;;;6.96;97.14;96348.91;7400911;19;20379;-75
2023/04/26 08:30:08;;;;;;;2.97;2.20;;;;;;;7.94;95.23;96363.59;7398864;19;20388;-75
2023/04/26 08:32:35;;;;;;;2.70;2.50;;;;;;;7.88;95.28;96362.19;7401172;19;20372;-75
2023/04/26 08:35:05;;;;;;;3.00;1.90;;;;;;;7.45;93.61;96372.59;7396849;19;20444;-75
2023/04/26 08:37:32;;;;;;;3.20;1.97;;;;;;;7.41;85.73;96369.81;7399570;19;20423;-74
2023/04/26 08:39:59;;;;;;;2.57;2.37;;;;;;;6.47;87.84;96365.59;7401065;19;20369;-74
2023/04/26 08:42:27;;;;;;;4.20;2.53;;;;;;;6.05;91.00;96377.31;7400407;19;20364;-74
2023/04/26 08:44:58;;;;;;;3.47;2.40;;;;;;;5.73;91.35;96342.25;7399189;19;20437;-74
2023/04/26 08:47:42;;;;;;;2.30;1.93;;;;;;;5.51;91.88;96355.31;7398232;19;20372;-74
2023/04/26 08:50:11;;;;;;;3.87;2.33;;;;;;;5.63;92.67;96384.44;7397350;19;20353;-74
2023/04/26 08:52:39;;;;;;;3.77;2.57;;;;;;;5.76;93.73;96377.63;7400890;19;20796;-74
2023/04/26 08:55:08;;;;;;;4.07;2.30;;;;;;;5.99;93.36;96376.63;7397593;19;20803;-74
2023/04/26 08:57:36;;;;;;;3.00;2.10;;;;;;;6.87;88.55;96387.50;7395709;19;20376;-73
2023/04/26 09:00:05;;;;;;;5.13;1.90;;;;;;;6.63;84.89;96387.03;7394828;19;20880;-74
2023/04/26 09:02:33;;;;;;;5.57;1.73;;;;;;;6.92;84.00;96389.22;7394895;19;20467;-74
2023/04/26 09:05:00;;;;;;;3.17;2.23;;;;;;;6.50;82.39;96378.91;7396337;19;20400;-74
2023/04/26 09:07:34;;;;;;;3.20;1.80;;;;;;;6.43;86.85;96393.53;7398638;19;20376;-74
2023/04/26 09:10:03;;;;;;;3.37;1.93;;;;;;;5.88;87.89;96352.44;7396618;19;21057;-74
2023/04/26 09:12:30;;;;;;;2.40;2.20;;;;;;;5.99;89.70;96347.75;7396201;19;20368;-74
2023/04/26 09:14:57;;;;;;;3.57;2.77;;;;;;;5.69;89.06;96353.63;7400199;19;20403;-74
2023/04/26 09:17:24;;;;;;;2.10;1.90;;;;;;;6.18;88.16;96381.75;7406532;19;20395;-74
2023/04/26 09:19:52;;;;;;;3.80;2.10;;;;;;;6.74;87.24;96369.94;7432452;19;20396;-74
2023/04/26 09:22:35;;;;;;;2.33;1.97;;;;;;;6.85;85.58;96379.13;7430460;19;20415;-74
2023/04/26 09:25:06;;;;;;;3.80;1.53;;;;;;;6.26;81.96;96352.16;7432892;19;20404;-75
2023/04/26 09:27:37;;;;;;;12.60;2.63;;;;;;;6.57;85.24;96362.75;7406946;19;20364;-75
2023/04/26 09:30:19;;;;;;;3.27;2.03;;;;;;;6.58;82.34;96374.03;7404821;19;20412;-75
2023/04/26 09:32:57;;;;;;;3.23;1.73;;;;;;;6.76;81.11;96371.19;7404449;19;20392;-75
2023/04/26 09:35:38;;;;;;;6.07;2.07;;;;;;;6.69;82.45;96362.97;7402322;19;20424;-75
2023/04/26 09:38:11;;;;;;;2.50;1.63;;;;;;;7.28;81.46;96375.94;7402948;19;20340;-75
2023/04/26 09:40:42;;;;;;;1.73;1.40;;;;;;;7.29;83.27;96365.13;7404801;19;20423;-75
2023/04/26 09:43:11;;;;;;;2.53;2.00;;;;;;;7.06;84.71;96374.91;7403625;19;20784;-74
2023/04/26 09:45:57;;;;;;;2.70;1.83;;;;;;;6.81;84.33;96372.91;7400949;19;20408;-75
2023/04/26 09:48:28;;;;;;;2.80;1.97;;;;;;;6.66;85.09;96362.78;7403355;19;20388;-74
2023/04/26 09:50:58;;;;;;;2.10;1.83;;;;;;;6.50;84.86;96365.78;7402044;19;20360;-75
2023/04/26 09:53:36;;;;;;;2.90;2.03;;;;;;;6.47;85.88;96362.97;7401953;19;20623;-74
2023/04/26 09:56:10;;;;;;;3.97;2.50;;;;;;;6.94;86.15;96368.66;7403200;19;20560;-74
2023/04/26 09:58:39;;;;;;;4.70;2.43;;;;;;;7.08;83.87;96367.53;7405629;19;20805;-75
2023/04/26 10:01:08;;;;;;;5.00;2.23;;;;;;;7.25;80.49;96356.28;7400790;19;20360;-75
2023/04/26 10:03:35;;;;;;;1.80;1.33;;;;;;;7.31;77.04;96326.16;7414819;19;20372;-74
2023/04/26 10:06:03;;;;;;;2.83;2.07;;;;;;;8.09;76.86;96371.06;7424827;19;20420;-75
2023/04/26 10:08:31;;;;;;;4.80;1.93;;;;;;;7.79;75.52;96359.56;7411940;19;20380;-75
2023/04/26 10:11:01;;;;;;;3.17;1.67;;;;;;;7.60;76.04;96372.97;7401760;19;20401;-75
2023/04/26 10:13:30;;;;;;;2.57;2.37;;;;;;;6.79;81.13;96341.69;7403948;19;20385;-74
2023/04/26 10:16:00;;;;;;;6.23;2.43;;;;;;;6.62;81.49;96367.09;7401629;19;20541;-75
2023/04/26 10:18:28;;;;;;;3.70;2.10;;;;;;;6.31;82.94;96341.53;7400489;19;20865;-74
2023/04/26 10:20:59;;;;;;;2.40;2.20;;;;;;;6.68;84.02;96368.53;7400704;19;20367;-73
2023/04/26 10:23:27;;;;;;;3.00;2.00;;;;;;;6.64;83.46;96354.44;7400497;19;20368;-75
2023/04/26 10:25:55;;;;;;;2.03;1.83;;;;;;;6.30;80.79;96334.75;7397941;19;20822;-74
2023/04/26 10:28:52;;;;;;;2.70;1.80;;;;;;;6.50;79.24;96365.78;7396836;19;20442;-75
2023/04/26 10:32:01;;;;;;;3.20;2.67;;;;;;;6.56;79.34;96365.66;7398836;19;20904;-75
2023/04/26 10:34:32;;;;;;;4.00;1.90;;;;;;;7.18;80.46;96355.94;7403078;19;20459;-76
2023/04/26 10:37:09;;;;;;;5.23;2.20;;;;;;;7.79;75.76;96366.69;7402538;19;20383;-74
2023/04/26 10:39:38;;;;;;;2.50;1.73;;;;;;;7.57;75.92;96363.06;7402542;19;20340;-74
2023/04/26 10:42:23;;;;;;;3.80;1.97;;;;;;;8.14;74.05;96375.38;7399619;19;20411;-74
2023/04/26 10:44:51;;;;;;;4.50;1.77;;;;;;;8.69;73.53;96370.31;7401219;19;20517;-75
2023/04/26 10:47:27;;;;;;;5.43;3.17;;;;;;;8.67;70.57;96361.91;7402073;19;20782;-74
2023/04/26 10:50:08;;;;;;;3.73;2.00;;;;;;;8.89;69.01;96372.28;7401506;19;20380;-74
2023/04/26 10:52:57;;;;;;;5.03;1.67;;;;;;;8.08;69.71;96366.09;7399600;19;20390;-74
2023/04/26 10:55:41;;;;;;;3.80;1.67;;;;;;;7.47;73.71;96358.06;7400490;19;20416;-74
2023/04/26 10:58:28;;;;;;;2.00;1.40;;;;;;;7.23;73.25;96352.44;7400192;19;20423;-74
2023/04/26 11:01:05;;;;;;;2.30;2.10;;;;;;;7.11;72.95;96353.75;7396506;19;20407;-74
2023/04/26 11:03:32;;;;;;;3.27;1.63;;;;;;;7.05;73.55;96320.78;7399126;19;20378;-74
2023/04/26 11:05:59;;;;;;;2.60;2.40;;;;;;;7.26;73.84;96347.34;7395741;19;20428;-74
2023/04/26 11:08:31;;;;;;;2.83;1.67;;;;;;;7.46;74.63;96355.75;7399237;19;20412;-74
2023/04/26 11:11:09;;;;;;;3.37;1.77;;;;;;;6.91;73.28;96324.59;7398779;19;20349;-74
2023/04/26 11:13:43;;;;;;;13.57;2.33;;;;;;;7.78;74.69;96336.19;7399807;19;20723;-74
2023/04/26 11:16:12;;;;;;;2.60;1.27;;;;;;;8.27;72.78;96348.88;7397007;19;20424;-74
2023/04/26 11:18:41;;;;;;;1.50;1.40;;;;;;;8.45;72.45;96328.63;7396362;19;20408;-74
2023/04/26 11:21:09;;;;;;;1.70;1.60;;;;;;;8.60;70.18;96353.72;7398935;19;20919;-74
2023/04/26 11:23:37;;;;;;;3.40;1.40;;;;;;;7.36;71.21;96315.50;7397894;19;20401;-74
2023/04/26 11:26:07;;;;;;;2.03;1.80;;;;;;;7.58;71.66;96345.41;7396499;19;20460;-74
2023/04/26 11:28:36;;;;;;;4.17;2.20;;;;;;;7.43;71.32;96327.41;7394589;19;20431;-74
2023/04/26 11:31:05;;;;;;;2.50;1.30;;;;;;;7.98;71.90;96352.13;7398175;19;20360;-74
2023/04/26 11:33:34;;;;;;;5.67;1.90;;;;;;;8.31;72.76;96338.53;7396671;19;20724;-74
2023/04/26 11:36:02;;;;;;;5.10;2.20;;;;;;;9.19;69.38;96352.00;7396665;19;20440;-74
2023/04/26 11:38:29;;;;;;;2.70;1.50;;;;;;;9.65;68.75;96357.56;7396527;19;20479;-75
2023/04/26 11:41:03;;;;;;;3.87;2.10;;;;;;;9.10;69.52;96353.16;7396765;19;20529;-75
2023/04/26 11:43:33;;;;;;;3.53;1.83;;;;;;;8.86;71.25;96354.44;7396325;19;20738;-75
2023/04/26 11:46:00;;;;;;;3.43;2.23;;;;;;;8.78;69.60;96349.97;7396342;19;20413;-75